Time;durP1;ratioP1;P1;durP2;ratioP2;P2;SDS_P1;SDS_P2;PMS_P1;PMS_P2;Temp;Humidity;BMP_temperature;BMP_pressure;BME280_temperature;BME280_humidity;BME280_pressure;Samples;Min_cycle;Max_cycle;Signal;HPM_P1;HPM_P2
2023/02/18 00:00:26;;;;;;;51.88;41.25;;;2.60;99.90;;;;;;4254395;28;20257;-86
2023/02/18 00:02:46;;;;;;;44.03;37.40;;;2.30;99.90;;;;;;4256709;28;20050;-86
2023/02/18 00:05:06;;;;;;;42.55;37.88;;;2.30;99.90;;;;;;4255736;28;20239;-87
2023/02/18 00:07:26;;;;;;;41.58;36.97;;;2.20;99.90;;;;;;4257406;28;20109;-86
2023/02/18 00:09:46;;;;;;;28.98;26.00;;;2.10;99.90;;;;;;4256883;28;20074;-86
2023/02/18 00:12:06;;;;;;;193.48;132.20;;;2.10;99.90;;;;;;4240104;28;20123;-86
2023/02/18 00:14:26;;;;;;;47.05;38.15;;;2.10;99.90;;;;;;4241724;28;20073;-86
2023/02/18 00:16:46;;;;;;;44.65;35.15;;;2.10;99.90;;;;;;4257125;28;20297;-86
2023/02/18 00:19:18;;;;;;;38.35;34.35;;;2.20;99.90;;;;;;4255837;28;20050;-86
2023/02/18 00:21:38;;;;;;;40.28;30.98;;;2.30;99.90;;;;;;4240392;28;20147;-86
2023/02/18 00:23:59;;;;;;;36.03;32.22;;;2.40;99.90;;;;;;4240240;28;20439;-86
2023/02/18 00:26:19;;;;;;;39.95;32.25;;;2.50;99.90;;;;;;4256936;28;20042;-86
2023/02/18 00:28:39;;;;;;;31.50;28.15;;;2.50;99.90;;;;;;4255522;28;20403;-86
2023/02/18 00:31:04;;;;;;;35.08;31.73;;;2.50;99.90;;;;;;4255048;28;20114;-86
2023/02/18 00:33:24;;;;;;;35.67;31.95;;;2.40;99.90;;;;;;4240177;28;20038;-86
2023/02/18 00:35:44;;;;;;;34.15;30.55;;;2.50;99.90;;;;;;4256998;28;20061;-86
2023/02/18 00:38:04;;;;;;;30.30;27.35;;;2.70;99.90;;;;;;4239997;28;20051;-86
2023/02/18 00:40:24;;;;;;;30.90;27.67;;;2.80;99.90;;;;;;4240025;28;20054;-86
2023/02/18 00:42:44;;;;;;;33.00;29.42;;;2.70;99.90;;;;;;4256770;28;20050;-86
2023/02/18 00:45:04;;;;;;;32.60;29.42;;;2.60;99.90;;;;;;4240172;28;20084;-86
2023/02/18 00:47:24;;;;;;;29.55;26.85;;;2.50;99.90;;;;;;4255743;28;20103;-86
2023/02/18 00:49:44;;;;;;;30.05;27.30;;;2.50;99.90;;;;;;4256515;28;20316;-86
2023/02/18 00:52:04;;;;;;;29.83;26.85;;;2.40;99.90;;;;;;4241256;28;20372;-86
2023/02/18 00:54:25;;;;;;;33.05;29.45;;;2.50;99.90;;;;;;4241377;28;20087;-86
2023/02/18 00:56:45;;;;;;;33.80;29.58;;;2.40;99.90;;;;;;4240638;28;20089;-86
2023/02/18 00:59:05;;;;;;;30.58;27.35;;;2.30;99.90;;;;;;4241213;28;20042;-87
2023/02/18 01:01:26;;;;;;;30.95;27.95;;;2.50;99.90;;;;;;4242539;28;20050;-87
2023/02/18 01:03:47;;;;;;;31.75;28.48;;;2.50;99.90;;;;;;4256575;28;20054;-86
2023/02/18 01:06:08;;;;;;;30.38;27.38;;;2.60;99.90;;;;;;4241088;28;20066;-86
2023/02/18 01:08:28;;;;;;;31.42;28.42;;;2.40;99.90;;;;;;4234748;28;20492;-86
2023/02/18 01:10:53;;;;;;;27.70;25.10;;;2.30;99.90;;;;;;4256560;28;20046;-86
2023/02/18 01:13:14;;;;;;;27.30;24.92;;;2.30;99.90;;;;;;4255682;28;20050;-86
2023/02/18 01:15:34;;;;;;;28.27;25.52;;;2.10;99.90;;;;;;4254611;28;20046;-86
2023/02/18 01:17:55;;;;;;;35.47;32.83;;;1.80;99.90;;;;;;4254547;28;20091;-87
2023/02/18 01:20:15;;;;;;;39.90;36.63;;;1.80;99.90;;;;;;4256313;28;20230;-86
2023/02/18 01:22:35;;;;;;;35.10;32.38;;;1.80;99.90;;;;;;4244323;28;20080;-86
2023/02/18 01:24:55;;;;;;;34.40;31.38;;;1.80;99.90;;;;;;4255871;28;20086;-86
2023/02/18 01:27:16;;;;;;;35.22;31.90;;;1.80;99.90;;;;;;4255882;28;20046;-87
2023/02/18 01:29:35;;;;;;;30.10;27.05;;;1.70;99.90;;;;;;4255470;28;20153;-86
2023/02/18 01:31:56;;;;;;;28.60;25.98;;;1.80;99.90;;;;;;4239989;28;20074;-86
2023/02/18 01:34:16;;;;;;;29.40;26.75;;;1.80;99.90;;;;;;4240611;28;20047;-86
2023/02/18 01:36:36;;;;;;;34.30;30.75;;;1.80;99.90;;;;;;4255359;28;20090;-86
2023/02/18 01:38:56;;;;;;;33.58;30.25;;;1.70;99.90;;;;;;4240111;28;20115;-86
2023/02/18 01:41:16;;;;;;;31.23;27.92;;;1.80;99.90;;;;;;4255956;28;20099;-86
2023/02/18 01:43:36;;;;;;;30.42;27.42;;;1.90;99.90;;;;;;4235835;28;20475;-86
2023/02/18 01:46:11;;;;;;;27.23;24.40;;;2.00;99.90;;;;;;4255687;28;20050;-86
2023/02/18 01:48:51;;;;;;;29.90;26.80;;;2.00;99.90;;;;;;4229166;28;20357;-86
2023/02/18 01:51:11;;;;;;;30.20;27.30;;;2.00;99.90;;;;;;4239900;28;20096;-86
2023/02/18 01:53:57;;;;;;;30.35;27.13;;;1.90;99.90;;;;;;4256115;28;20054;-86
2023/02/18 01:56:27;;;;;;;30.92;27.92;;;2.00;99.90;;;;;;4240308;28;20043;-87
2023/02/18 01:58:47;;;;;;;31.45;28.20;;;2.00;99.90;;;;;;4237980;28;20308;-86
2023/02/18 02:01:08;;;;;;;30.08;26.92;;;2.00;99.90;;;;;;4256848;28;20042;-86
2023/02/18 02:03:29;;;;;;;30.27;27.58;;;2.10;99.90;;;;;;4241109;28;20412;-86
2023/02/18 02:05:49;;;;;;;25.90;23.63;;;2.20;99.90;;;;;;4258071;28;20143;-86
2023/02/18 02:08:09;;;;;;;25.70;23.55;;;2.10;99.90;;;;;;4257938;28;20042;-86
2023/02/18 02:10:52;;;;;;;25.90;23.85;;;2.00;99.90;;;;;;4258153;28;20081;-86
2023/02/18 02:14:07;;;;;;;30.47;28.20;;;1.70;99.90;;;;;;4242333;28;20121;-86
2023/02/18 02:16:56;;;;;;;40.03;37.20;;;1.50;99.90;;;;;;4158105;28;20103;-86
2023/02/18 02:19:53;;;;;;;35.80;33.22;;;1.40;99.90;;;;;;4159368;28;20240;-86
2023/02/18 02:22:46;;;;;;;30.08;27.95;;;1.50;99.90;;;;;;4158652;28;20130;-86
2023/02/18 02:25:25;;;;;;;29.90;27.35;;;1.60;99.90;;;;;;4172958;28;20056;-86
2023/02/18 02:27:57;;;;;;;30.17;27.17;;;1.70;99.90;;;;;;4161462;28;20112;-86
2023/02/18 02:30:40;;;;;;;28.65;25.83;;;1.70;99.90;;;;;;4173147;28;20140;-86
2023/02/18 02:33:30;;;;;;;28.88;26.35;;;1.70;99.90;;;;;;4172531;28;20105;-86
2023/02/18 02:36:22;;;;;;;27.02;24.83;;;1.90;99.90;;;;;;4158649;28;20041;-86
2023/02/18 02:38:45;;;;;;;31.60;28.40;;;1.70;99.90;;;;;;4158612;28;20149;-86
2023/02/18 02:41:39;;;;;;;33.30;30.23;;;1.60;99.90;;;;;;4173081;28;20052;-86
2023/02/18 02:44:19;;;;;;;30.67;27.90;;;1.50;99.90;;;;;;4158753;28;20383;-86
2023/02/18 02:46:44;;;;;;;29.25;26.35;;;1.60;99.90;;;;;;4193033;28;20042;-86
2023/02/18 02:49:42;;;;;;;30.95;28.13;;;1.60;99.90;;;;;;4242926;28;20050;-86
2023/02/18 02:52:09;;;;;;;32.00;28.92;;;1.40;99.90;;;;;;4256781;28;20057;-86
2023/02/18 02:54:29;;;;;;;31.45;28.33;;;1.50;99.90;;;;;;4259626;27;20429;-86
2023/02/18 02:57:03;;;;;;;31.23;28.40;;;1.50;99.90;;;;;;4257207;28;20050;-86
2023/02/18 02:59:25;;;;;;;32.60;29.30;;;1.60;99.90;;;;;;4257318;28;20072;-86
2023/02/18 03:02:03;;;;;;;34.70;31.25;;;1.30;99.90;;;;;;4242569;28;20046;-86
2023/02/18 03:04:51;;;;;;;32.58;29.48;;;1.30;99.90;;;;;;4258100;28;20042;-86
2023/02/18 03:07:32;;;;;;;31.48;28.73;;;1.30;99.90;;;;;;4241972;28;20299;-86
2023/02/18 03:10:18;;;;;;;29.77;27.33;;;1.30;99.90;;;;;;4257692;28;20050;-86
2023/02/18 03:12:57;;;;;;;28.05;25.60;;;1.30;99.90;;;;;;4257081;28;20069;-86
2023/02/18 03:15:46;;;;;;;29.42;26.88;;;1.30;99.90;;;;;;4257634;28;20197;-86
2023/02/18 03:18:30;;;;;;;34.55;31.52;;;1.10;99.90;;;;;;4257461;28;20045;-86
2023/02/18 03:20:59;;;;;;;32.35;29.60;;;1.10;99.90;;;;;;4242291;28;20051;-86
2023/02/18 03:23:28;;;;;;;36.97;34.15;;;1.00;99.90;;;;;;4255950;28;20066;-86
2023/02/18 03:25:49;;;;;;;40.80;37.58;;;0.90;99.90;;;;;;4256067;28;20456;-86
2023/02/18 03:28:17;;;;;;;40.45;37.00;;;0.80;99.90;;;;;;4256880;28;20037;-86
2023/02/18 03:30:50;;;;;;;35.13;32.38;;;0.70;99.90;;;;;;4257106;28;20046;-86
2023/02/18 03:33:13;;;;;;;;;;;0.80;99.90;;;;;;4232060;28;20095;-86
2023/02/18 03:35:35;;;;;;;32.05;29.23;;;0.70;99.90;;;;;;4257145;28;20230;-86
2023/02/18 03:38:05;;;;;;;37.33;33.97;;;0.70;99.90;;;;;;4257497;28;20323;-86
2023/02/18 03:40:25;;;;;;;34.63;31.38;;;0.70;99.90;;;;;;4256729;28;20043;-86
2023/02/18 03:42:45;;;;;;;39.65;36.55;;;0.70;99.90;;;;;;4233137;28;20058;-86
2023/02/18 03:45:06;;;;;;;34.67;31.13;;;0.60;99.90;;;;;;4240566;28;20062;-86
2023/02/18 03:47:26;;;;;;;36.10;32.85;;;0.70;99.90;;;;;;4242176;28;20250;-86
2023/02/18 03:49:46;;;;;;;35.38;32.28;;;0.60;99.90;;;;;;4256964;28;20065;-86
2023/02/18 03:52:06;;;;;;;40.75;37.10;;;0.70;99.90;;;;;;4238625;28;20511;-86
2023/02/18 03:54:25;;;;;;;43.15;39.55;;;0.60;99.90;;;;;;4257010;28;20046;-86
2023/02/18 03:56:45;;;;;;;46.95;42.97;;;0.50;99.90;;;;;;4241876;28;20050;-86
2023/02/18 03:59:05;;;;;;;43.65;39.97;;;0.60;99.90;;;;;;4257074;28;20046;-86
2023/02/18 04:01:25;;;;;;;34.83;31.42;;;0.60;99.90;;;;;;4257203;28;20062;-86
2023/02/18 04:03:45;;;;;;;35.22;32.17;;;0.60;99.90;;;;;;4257558;28;20042;-86
2023/02/18 04:06:06;;;;;;;34.33;31.17;;;0.60;99.90;;;;;;4240608;28;20055;-86
2023/02/18 04:08:27;;;;;;;39.88;36.28;;;0.60;99.90;;;;;;4240491;28;20084;-86
2023/02/18 04:10:47;;;;;;;36.53;33.45;;;0.50;99.90;;;;;;4257282;28;20172;-86
2023/02/18 04:13:07;;;;;;;35.47;32.28;;;0.50;99.90;;;;;;4257102;28;20038;-86
2023/02/18 04:15:27;;;;;;;34.95;31.63;;;0.50;99.90;;;;;;4241718;28;20115;-86
2023/02/18 04:17:47;;;;;;;32.63;29.55;;;0.50;99.90;;;;;;4257241;28;20123;-86
2023/02/18 04:20:07;;;;;;;32.15;29.17;;;0.40;99.90;;;;;;4256783;28;20145;-86
2023/02/18 04:22:28;;;;;;;33.17;30.10;;;0.50;99.90;;;;;;4256731;27;20050;-86
2023/02/18 04:24:48;;;;;;;33.13;29.80;;;0.40;99.90;;;;;;4241509;28;20043;-86
2023/02/18 04:27:07;;;;;;;33.67;30.45;;;0.50;99.90;;;;;;4241042;28;20077;-86
2023/02/18 04:29:27;;;;;;;32.53;29.67;;;0.50;99.90;;;;;;4241692;28;20104;-86
2023/02/18 04:31:48;;;;;;;34.38;31.27;;;0.50;99.90;;;;;;4241695;28;20162;-86
2023/02/18 04:34:08;;;;;;;37.28;33.95;;;0.50;99.90;;;;;;4256133;28;20046;-86
2023/02/18 04:36:29;;;;;;;34.47;31.75;;;0.20;99.90;;;;;;4256924;28;20269;-86
2023/02/18 04:38:48;;;;;;;38.45;34.80;;;0.40;99.90;;;;;;4241511;28;20246;-86
2023/02/18 04:41:09;;;;;;;31.23;28.58;;;0.30;99.90;;;;;;4242545;28;20081;-86
2023/02/18 04:43:29;;;;;;;39.53;35.72;;;0.30;99.90;;;;;;4240981;28;20053;-86
2023/02/18 04:45:49;;;;;;;41.03;37.08;;;0.30;99.90;;;;;;4256163;28;20093;-86
2023/02/18 04:48:09;;;;;;;36.08;32.72;;;0.20;99.90;;;;;;4256112;28;20068;-86
2023/02/18 04:50:28;;;;;;;40.20;36.40;;;0.20;99.90;;;;;;4255755;28;20054;-86
2023/02/18 04:52:48;;;;;;;40.35;36.30;;;0.20;99.90;;;;;;4240221;28;20073;-86
2023/02/18 04:55:08;;;;;;;37.58;33.97;;;0.30;99.90;;;;;;4255838;28;20089;-86
2023/02/18 04:57:28;;;;;;;33.20;30.17;;;0.30;99.90;;;;;;4241343;28;20239;-86
2023/02/18 04:59:48;;;;;;;34.65;31.23;;;0.30;99.90;;;;;;4240557;28;20230;-86
2023/02/18 05:02:08;;;;;;;36.35;33.08;;;0.30;99.90;;;;;;4240753;28;20054;-86
2023/02/18 05:04:29;;;;;;;37.53;34.05;;;0.30;99.90;;;;;;4256154;28;20092;-86
2023/02/18 05:06:49;;;;;;;34.00;30.65;;;0.30;99.90;;;;;;4256147;28;20097;-86
2023/02/18 05:09:09;;;;;;;37.45;33.78;;;0.30;99.90;;;;;;4256369;28;20361;-86
2023/02/18 05:11:29;;;;;;;38.20;34.60;;;0.40;99.90;;;;;;4256516;28;20080;-86
2023/02/18 05:13:49;;;;;;;43.28;39.63;;;0.20;99.90;;;;;;4238768;28;20087;-86
2023/02/18 05:16:09;;;;;;;50.95;46.17;;;0.00;99.90;;;;;;4241086;28;20046;-86
2023/02/18 05:18:30;;;;;;;47.92;43.28;;;-0.10;99.90;;;;;;4256598;28;20042;-86
2023/02/18 05:20:50;;;;;;;51.67;47.17;;;-0.10;99.90;;;;;;4242826;28;20128;-85
2023/02/18 05:23:09;;;;;;;50.60;46.40;;;-0.10;99.90;;;;;;4256296;28;20050;-86
2023/02/18 05:25:30;;;;;;;45.60;41.10;;;-0.10;99.90;;;;;;4256490;28;20046;-86
2023/02/18 05:27:49;;;;;;;46.35;41.85;;;0.00;99.90;;;;;;4256323;28;20062;-86
2023/02/18 05:30:10;;;;;;;44.42;40.10;;;0.00;99.90;;;;;;4255835;28;20039;-86
2023/02/18 05:32:30;;;;;;;41.05;34.92;;;0.00;99.90;;;;;;4232407;28;20086;-86
2023/02/18 05:34:50;;;;;;;46.95;41.42;;;0.00;99.90;;;;;;4256833;27;20050;-85
2023/02/18 05:37:12;;;;;;;51.30;41.03;;;-0.10;99.90;;;;;;4259300;28;20042;-85
2023/02/18 05:39:32;;;;;;;59.05;46.53;;;-0.10;99.90;;;;;;4257468;28;20045;-86
2023/02/18 05:41:52;;;;;;;60.42;53.75;;;-0.20;99.90;;;;;;4243285;28;20441;-86
2023/02/18 05:44:31;;;;;;;50.55;44.75;;;-0.20;99.90;;;;;;4259049;28;20050;-86
2023/02/18 05:46:50;;;;;;;53.97;47.95;;;-0.10;99.90;;;;;;4242944;28;20042;-85
2023/02/18 05:49:10;;;;;;;51.67;45.78;;;-0.10;99.90;;;;;;4258756;28;20141;-86
2023/02/18 05:51:30;;;;;;;54.70;49.60;;;-0.20;99.90;;;;;;4259179;28;20042;-85
2023/02/18 05:53:51;;;;;;;56.05;50.97;;;-0.20;99.90;;;;;;4244757;28;20042;-86
2023/02/18 05:56:11;;;;;;;57.75;52.58;;;-0.30;99.90;;;;;;4243221;28;20097;-86
2023/02/18 05:58:31;;;;;;;52.33;48.03;;;-0.40;99.90;;;;;;4256888;28;20373;-86
2023/02/18 06:00:51;;;;;;;49.88;45.20;;;-0.30;99.90;;;;;;4243482;28;20434;-86
2023/02/18 06:03:11;;;;;;;55.15;50.63;;;-0.20;99.90;;;;;;4243102;28;20046;-86
2023/02/18 06:05:31;;;;;;;54.10;49.42;;;-0.30;99.90;;;;;;4243066;28;20051;-86
2023/02/18 06:07:51;;;;;;;53.55;49.10;;;-0.20;99.90;;;;;;4242748;28;20361;-86
2023/02/18 06:10:11;;;;;;;48.25;44.15;;;-0.20;99.90;;;;;;4258619;28;20395;-85
2023/02/18 06:12:31;;;;;;;38.72;34.75;;;-0.10;99.90;;;;;;4257817;28;20085;-85
2023/02/18 06:14:51;;;;;;;39.40;35.15;;;-0.10;99.90;;;;;;4257471;28;20154;-85
2023/02/18 06:17:12;;;;;;;58.90;53.05;;;0.00;99.90;;;;;;4258837;28;20049;-85
2023/02/18 06:19:32;;;;;;;54.13;49.55;;;-0.10;99.90;;;;;;4242106;28;20262;-86
2023/02/18 06:21:52;;;;;;;51.10;46.38;;;-0.10;99.90;;;;;;4257615;28;20051;-85
2023/02/18 06:24:12;;;;;;;57.88;52.72;;;-0.10;99.90;;;;;;4258603;28;20389;-89
2023/02/18 06:26:33;;;;;;;54.38;49.90;;;-0.40;99.90;;;;;;4240317;28;20093;-88
2023/02/18 06:28:53;;;;;;;61.03;55.80;;;-0.50;99.90;;;;;;4242607;28;20140;-89
2023/02/18 06:31:13;;;;;;;56.88;52.35;;;-0.40;99.90;;;;;;4243088;28;20062;-88
2023/02/18 06:33:33;;;;;;;61.25;55.88;;;-0.40;99.90;;;;;;4242855;28;20138;-89
2023/02/18 06:35:56;;;;;;;57.20;52.38;;;-0.40;99.90;;;;;;4243191;28;20146;-89
2023/02/18 06:38:16;;;;;;;66.60;60.67;;;-0.30;99.90;;;;;;4240075;28;20050;-89
2023/02/18 06:40:36;;;;;;;62.90;57.13;;;-0.30;99.90;;;;;;4243149;28;20136;-89
2023/02/18 06:42:56;;;;;;;61.10;56.20;;;-0.30;99.90;;;;;;4256264;28;20050;-88
2023/02/18 06:45:16;;;;;;;72.43;65.53;;;-0.20;99.90;;;;;;4256129;28;20391;-88
2023/02/18 06:47:36;;;;;;;72.57;65.53;;;-0.40;99.90;;;;;;4242501;28;20090;-88
2023/02/18 06:49:56;;;;;;;65.70;59.55;;;-0.40;99.90;;;;;;4240573;28;20097;-89
2023/02/18 06:52:16;;;;;;;73.20;66.00;;;-0.40;99.90;;;;;;4240263;28;20046;-89
2023/02/18 06:54:36;;;;;;;63.58;57.97;;;-0.40;99.90;;;;;;4258018;28;20356;-89
2023/02/18 06:56:56;;;;;;;58.80;53.80;;;-0.20;99.90;;;;;;4257678;28;20361;-89
2023/02/18 06:59:16;;;;;;;60.05;54.45;;;-0.10;99.90;;;;;;4257607;28;20076;-88
2023/02/18 07:01:35;;;;;;;51.03;46.72;;;-0.10;99.90;;;;;;4257123;28;20353;-89
2023/02/18 07:03:56;;;;;;;51.30;45.00;;;0.00;99.90;;;;;;4257058;28;20041;-89
2023/02/18 07:06:16;;;;;;;60.40;50.38;;;0.00;99.90;;;;;;4241608;28;20050;-88
2023/02/18 07:08:36;;;;;;;55.50;48.13;;;0.10;99.90;;;;;;4245509;28;20051;-89
2023/02/18 07:10:56;;;;;;;56.97;49.08;;;0.10;99.90;;;;;;4256453;28;20111;-88
2023/02/18 07:13:15;;;;;;;54.38;48.42;;;0.30;99.90;;;;;;4240710;28;20050;-89
2023/02/18 07:15:36;;;;;;;82.35;58.78;;;0.20;99.90;;;;;;4257151;28;20054;-89
2023/02/18 07:17:57;;;;;;;114.65;73.03;;;0.30;99.90;;;;;;4240947;28;20077;-88
2023/02/18 07:20:18;;;;;;;123.45;75.55;;;0.20;99.90;;;;;;4258055;28;20081;-88
2023/02/18 07:22:38;;;;;;;69.72;53.33;;;0.10;99.90;;;;;;4257180;28;20054;-88
2023/02/18 07:24:58;;;;;;;88.13;58.88;;;0.20;99.90;;;;;;4240980;28;20065;-88
2023/02/18 07:27:19;;;;;;;72.15;59.15;;;0.20;99.90;;;;;;4256881;28;20046;-88
2023/02/18 07:29:38;;;;;;;67.55;59.00;;;0.10;99.90;;;;;;4257842;28;20235;-88
2023/02/18 07:31:58;;;;;;;58.22;51.50;;;0.20;99.90;;;;;;4243350;28;20068;-88
2023/02/18 07:34:19;;;;;;;71.30;59.40;;;0.30;99.90;;;;;;4257626;28;20065;-88
2023/02/18 07:36:39;;;;;;;89.35;66.47;;;0.30;99.90;;;;;;4257750;28;20050;-88
2023/02/18 07:38:59;;;;;;;71.68;56.28;;;0.40;99.90;;;;;;4241963;28;20043;-89
2023/02/18 07:41:21;;;;;;;61.70;47.63;;;0.40;99.90;;;;;;4248282;28;20051;-88
2023/02/18 07:43:41;;;;;;;62.72;49.03;;;0.50;99.90;;;;;;4257613;28;20068;-89
2023/02/18 07:46:05;;;;;;;55.30;44.58;;;0.70;99.90;;;;;;4257385;28;20238;-89
2023/02/18 07:48:25;;;;;;;73.97;57.58;;;0.80;99.90;;;;;;4240075;28;20062;-89
2023/02/18 07:50:45;;;;;;;59.78;47.45;;;1.00;99.90;;;;;;4242181;28;20299;-89
2023/02/18 07:53:06;;;;;;;78.97;57.92;;;1.00;99.90;;;;;;4257440;28;20079;-89
2023/02/18 07:55:47;;;;;;;61.33;50.97;;;1.10;99.90;;;;;;4257179;28;20226;-89
2023/02/18 07:58:05;;;;;;;55.67;46.35;;;1.10;99.90;;;;;;4256857;27;20046;-89
2023/02/18 08:00:25;;;;;;;65.25;50.22;;;1.10;99.90;;;;;;4257472;28;20145;-89
2023/02/18 08:02:45;;;;;;;63.35;47.47;;;1.20;99.90;;;;;;4241206;28;20053;-89
2023/02/18 08:05:05;;;;;;;59.72;45.05;;;1.30;99.90;;;;;;4241134;28;20050;-88
2023/02/18 08:07:25;;;;;;;86.75;62.88;;;1.50;99.90;;;;;;4241084;28;20057;-88
2023/02/18 08:09:45;;;;;;;64.00;51.30;;;1.40;99.90;;;;;;4256375;28;20082;-89
2023/02/18 08:12:05;;;;;;;58.30;46.03;;;1.60;99.90;;;;;;4240987;28;20413;-89
2023/02/18 08:14:25;;;;;;;57.35;48.17;;;1.90;99.90;;;;;;4256180;28;20082;-88
2023/02/18 08:16:45;;;;;;;61.60;48.25;;;1.90;99.90;;;;;;4256142;28;20242;-89
2023/02/18 08:19:05;;;;;;;62.40;50.63;;;2.00;99.90;;;;;;4240878;28;20377;-89
2023/02/18 08:21:25;;;;;;;52.75;44.03;;;2.10;99.90;;;;;;4240568;28;20115;-89
2023/02/18 08:23:46;;;;;;;61.20;49.67;;;2.30;99.90;;;;;;4243095;28;20081;-89
2023/02/18 08:26:06;;;;;;;63.70;50.40;;;2.50;99.90;;;;;;4256858;28;20080;-89
2023/02/18 08:28:26;;;;;;;54.58;47.40;;;2.60;99.90;;;;;;4241460;28;20047;-89
2023/02/18 08:30:47;;;;;;;51.75;43.83;;;2.60;99.90;;;;;;4241103;28;20057;-89
2023/02/18 08:33:07;;;;;;;54.30;47.03;;;2.60;99.90;;;;;;4256504;28;20064;-89
2023/02/18 08:35:27;;;;;;;48.80;43.47;;;2.70;99.90;;;;;;4256195;28;20075;-89
2023/02/18 08:37:47;;;;;;;47.05;41.97;;;2.90;99.90;;;;;;4240582;28;20047;-89
2023/02/18 08:40:13;;;;;;;50.13;42.25;;;2.90;99.90;;;;;;4256585;28;20057;-89
2023/02/18 08:42:33;;;;;;;48.92;43.35;;;3.20;99.90;;;;;;4239506;28;20120;-89
2023/02/18 08:44:52;;;;;;;49.92;41.55;;;3.20;99.90;;;;;;4256696;28;20062;-89
2023/02/18 08:47:12;;;;;;;46.15;41.33;;;3.50;99.90;;;;;;4256803;28;20043;-89
2023/02/18 08:49:53;;;;;;;46.08;41.10;;;3.90;99.90;;;;;;4243317;28;20043;-89
2023/02/18 08:52:13;;;;;;;23.05;21.23;;;4.00;99.90;;;;;;4255853;28;20111;-90
2023/02/18 08:54:33;;;;;;;25.55;23.35;;;4.20;99.90;;;;;;4242141;28;20073;-90
2023/02/18 08:56:58;;;;;;;57.65;44.70;;;4.90;99.90;;;;;;4241146;28;20069;-91
2023/02/18 08:59:18;;;;;;;45.92;38.28;;;4.70;99.90;;;;;;4241544;28;20093;-90
2023/02/18 09:01:38;;;;;;;29.85;26.98;;;4.80;99.90;;;;;;4256743;28;20092;-90
2023/02/18 09:03:58;;;;;;;21.05;19.20;;;5.10;99.90;;;;;;4254983;28;20084;-90
2023/02/18 09:06:19;;;;;;;22.45;20.38;;;5.50;99.90;;;;;;4239338;28;20081;-90
2023/02/18 09:08:38;;;;;;;21.38;19.60;;;6.00;99.90;;;;;;4242997;27;20042;-90
2023/02/18 09:11:01;;;;;;;21.85;19.85;;;6.10;99.90;;;;;;4239689;28;20051;-91
2023/02/18 09:13:21;;;;;;;19.92;18.23;;;6.30;99.90;;;;;;4254582;28;20034;-90
2023/02/18 09:15:41;;;;;;;18.50;16.80;;;6.60;99.90;;;;;;4254627;28;20081;-90
2023/02/18 09:18:01;;;;;;;16.85;15.38;;;6.60;99.90;;;;;;4241250;28;20039;-90
2023/02/18 09:20:21;;;;;;;17.55;16.27;;;7.00;99.90;;;;;;4241067;28;20058;-90
2023/02/18 09:22:41;;;;;;;17.48;16.27;;;7.20;99.90;;;;;;4239337;28;20042;-90
2023/02/18 09:25:03;;;;;;;16.63;15.18;;;7.50;99.90;;;;;;4240686;28;20046;-90
2023/02/18 09:27:22;;;;;;;15.85;14.65;;;7.70;99.90;;;;;;4240561;28;20057;-90
2023/02/18 09:29:43;;;;;;;13.80;12.90;;;7.60;99.90;;;;;;4240851;28;20309;-90
2023/02/18 09:32:04;;;;;;;13.65;12.95;;;7.70;99.90;;;;;;4242399;28;20055;-90
2023/02/18 09:34:24;;;;;;;13.48;12.75;;;8.00;99.90;;;;;;4254852;28;20094;-90
2023/02/18 09:36:44;;;;;;;13.93;12.82;;;8.10;99.90;;;;;;4240714;28;20073;-89
2023/02/18 09:39:07;;;;;;;14.27;13.15;;;8.20;99.90;;;;;;4256078;28;20050;-90
2023/02/18 09:41:37;;;;;;;;;;;8.60;99.90;;;;;;4255476;28;20047;-90
2023/02/18 09:44:11;;;;;;;14.93;13.65;;;8.70;99.90;;;;;;4240544;28;20238;-91
2023/02/18 09:46:36;;;;;;;12.57;11.68;;;8.60;99.90;;;;;;4255571;28;20426;-90
2023/02/18 09:48:57;;;;;;;12.70;11.88;;;8.60;99.90;;;;;;4256099;28;20046;-90
2023/02/18 09:51:18;;;;;;;10.65;10.13;;;8.70;99.90;;;;;;4240748;28;20107;-90
2023/02/18 09:53:38;;;;;;;13.40;12.43;;;8.70;99.90;;;;;;4256176;28;20086;-90
2023/02/18 09:56:00;;;;;;;10.27;9.75;;;8.90;99.90;;;;;;4255944;28;20369;-90
2023/02/18 09:58:30;;;;;;;10.77;10.38;;;9.00;99.90;;;;;;4240776;28;20038;-91
2023/02/18 10:00:57;;;;;;;10.68;10.00;;;9.30;99.90;;;;;;4240395;28;20042;-90
2023/02/18 10:03:20;;;;;;;12.18;10.38;;;9.50;99.90;;;;;;4240561;28;20073;-90
2023/02/18 10:06:06;;;;;;;10.18;9.60;;;9.90;99.90;;;;;;4239324;28;20112;-90
2023/02/18 10:08:28;;;;;;;8.90;8.32;;;10.20;99.90;;;;;;4240516;28;20073;-91
2023/02/18 10:10:48;;;;;;;9.15;8.55;;;10.30;99.90;;;;;;4240513;28;20150;-90
2023/02/18 10:13:13;;;;;;;9.32;8.50;;;10.40;99.90;;;;;;4243352;28;20230;-90
2023/02/18 10:15:34;;;;;;;10.95;10.05;;;11.00;99.90;;;;;;4255063;28;20085;-90
2023/02/18 10:17:56;;;;;;;9.25;8.60;;;11.00;99.90;;;;;;4240480;28;20088;-90
2023/02/18 10:20:22;;;;;;;9.88;9.27;;;11.60;99.90;;;;;;4256219;27;20050;-90
2023/02/18 10:22:43;;;;;;;7.78;7.30;;;11.90;99.90;;;;;;4258177;28;20119;-90
2023/02/18 10:25:06;;;;;;;7.10;7.00;;;11.80;99.90;;;;;;4244341;28;20072;-90
2023/02/18 10:27:27;;;;;;;;;;;11.80;99.90;;;;;;4239706;28;20091;-90
2023/02/18 10:29:48;;;;;;;5.60;5.40;;;12.30;99.90;;;;;;4257665;28;19922;-90
2023/02/18 10:32:23;;;;;;;5.50;5.15;;;12.00;99.90;;;;;;4258536;28;20145;-90
2023/02/18 10:35:12;;;;;;;5.30;4.90;;;12.10;99.90;;;;;;4243152;28;20114;-90
2023/02/18 10:37:51;;;;;;;4.13;3.90;;;12.30;99.90;;;;;;4242312;28;20074;-91
2023/02/18 10:40:14;;;;;;;3.72;3.63;;;12.40;99.90;;;;;;4243199;28;20189;-91
2023/02/18 10:42:45;;;;;;;2.72;2.63;;;12.60;99.90;;;;;;4243077;28;20050;-91
2023/02/18 10:45:37;;;;;;;3.28;3.20;;;12.50;99.90;;;;;;4242545;28;20039;-91
2023/02/18 10:48:21;;;;;;;3.75;3.65;;;12.60;99.90;;;;;;4257723;28;20381;-91
2023/02/18 10:50:43;;;;;;;6.22;5.95;;;12.60;99.90;;;;;;4257188;28;20046;-91
2023/02/18 10:53:21;;;;;;;3.97;3.88;;;12.80;99.90;;;;;;4242382;28;20055;-91
2023/02/18 10:55:44;;;;;;;3.08;3.08;;;12.90;99.90;;;;;;4242483;28;20238;-91
2023/02/18 10:58:34;;;;;;;2.60;2.60;;;13.00;99.90;;;;;;4242833;28;20047;-92
2023/02/18 11:00:54;;;;;;;4.03;3.47;;;13.20;99.90;;;;;;4256386;28;20107;-92
2023/02/18 11:03:35;;;;;;;3.80;3.70;;;13.10;99.90;;;;;;4256013;28;20080;-91
2023/02/18 11:05:56;;;;;;;3.03;2.92;;;13.10;99.90;;;;;;4258300;28;20099;-92
2023/02/18 11:08:23;;;;;;;3.30;3.20;;;13.30;99.90;;;;;;4258446;28;20046;-92
2023/02/18 11:10:45;;;;;;;2.63;2.63;;;13.10;99.90;;;;;;4255639;28;20038;-92
2023/02/18 11:13:07;;;;;;;2.75;2.70;;;13.10;99.90;;;;;;4243085;28;20084;-92
2023/02/18 11:15:29;;;;;;;2.75;2.63;;;12.80;99.90;;;;;;4241477;28;20058;-91
2023/02/18 11:17:51;;;;;;;2.55;2.45;;;12.50;99.90;;;;;;4256740;28;20054;-92
2023/02/18 11:20:36;;;;;;;4.72;4.63;;;12.50;99.90;;;;;;4243917;28;20043;-91
2023/02/18 11:23:03;;;;;;;6.50;6.28;;;12.40;99.90;;;;;;4238542;28;20263;-92
2023/02/18 11:25:26;;;;;;;2.83;2.72;;;12.20;99.90;;;;;;4258005;28;20100;-92
2023/02/18 11:27:55;;;;;;;5.32;3.72;;;12.30;99.90;;;;;;4241595;28;20042;-92
2023/02/18 11:30:18;;;;;;;3.45;3.25;;;12.50;99.90;;;;;;4256289;28;20045;-92
2023/02/18 11:32:37;;;;;;;3.50;3.20;;;12.50;99.90;;;;;;4257563;27;20054;-90
2023/02/18 11:34:57;;;;;;;3.50;3.40;;;12.70;99.90;;;;;;4257511;28;20084;-89
2023/02/18 11:37:19;;;;;;;2.80;2.70;;;12.70;99.90;;;;;;4257342;28;20372;-89
2023/02/18 11:39:45;;;;;;;2.97;2.85;;;12.50;99.90;;;;;;4257724;28;20041;-89
2023/02/18 11:42:05;;;;;;;2.80;2.80;;;12.60;99.90;;;;;;4242417;28;20051;-89
2023/02/18 11:44:40;;;;;;;2.88;2.67;;;12.80;99.90;;;;;;4243039;28;20389;-89
2023/02/18 11:47:06;;;;;;;2.60;2.60;;;12.90;99.90;;;;;;4248071;28;20259;-89
2023/02/18 11:49:28;;;;;;;2.40;2.38;;;12.80;99.90;;;;;;4257369;28;20070;-86
2023/02/18 11:51:49;;;;;;;2.78;2.65;;;12.90;99.90;;;;;;4257756;28;20392;-86
2023/02/18 11:54:23;;;;;;;2.97;2.30;;;13.00;99.90;;;;;;4242118;28;20081;-86
2023/02/18 11:56:57;;;;;;;2.20;2.20;;;13.00;99.90;;;;;;4255938;28;20049;-89
2023/02/18 11:59:17;;;;;;;2.45;2.30;;;13.00;99.90;;;;;;4255171;28;20076;-89
2023/02/18 12:01:49;;;;;;;2.50;2.40;;;13.10;99.90;;;;;;4233210;28;20069;-88
2023/02/18 12:04:16;;;;;;;3.30;2.90;;;13.20;99.90;;;;;;4240378;28;20388;-89
2023/02/18 12:06:51;;;;;;;2.97;2.88;;;13.30;99.90;;;;;;4237994;28;20047;-89
2023/02/18 12:09:28;;;;;;;3.15;3.03;;;13.20;99.90;;;;;;4257278;28;20368;-89
2023/02/18 12:11:59;;;;;;;2.58;2.20;;;13.10;99.90;;;;;;4245962;27;20041;-89
2023/02/18 12:14:22;;;;;;;2.65;2.45;;;13.20;99.90;;;;;;4245713;28;20085;-89
2023/02/18 12:16:51;;;;;;;2.75;2.75;;;13.40;99.90;;;;;;4257505;28;20050;-90
2023/02/18 12:19:26;;;;;;;2.30;2.20;;;13.20;99.90;;;;;;4245408;28;20085;-89
2023/02/18 12:22:14;;;;;;;3.95;2.20;;;12.90;99.90;;;;;;4243149;28;20051;-89